createdAt,value
2019-04-23T00:01:16.418Z,8.03
2019-04-23T00:03:40.419Z,8.00
2019-04-23T00:09:05.405Z,8.20
2019-04-23T00:11:15.388Z,9.10
2019-04-23T00:13:44.930Z,8.80
2019-04-23T00:21:30.996Z,9.20
2019-04-23T00:24:03.097Z,8.50
2019-04-23T00:26:30.479Z,8.90
2019-04-23T00:28:58.925Z,8.60
2019-04-23T00:33:57.787Z,8.97
2019-04-23T00:36:32.553Z,9.50
2019-04-23T00:38:54.442Z,8.83
2019-04-23T00:41:33.456Z,8.00
2019-04-23T00:44:04.163Z,8.00
2019-04-23T00:49:05.553Z,8.17
2019-04-23T00:51:33.188Z,7.50
2019-04-23T00:54:06.387Z,8.23
2019-04-23T00:59:01.508Z,11.97
2019-04-23T01:01:45.840Z,7.80
2019-04-23T01:04:04.805Z,7.80
2019-04-23T01:06:41.139Z,8.63
2019-04-23T01:09:14.249Z,8.40
2019-04-23T01:11:41.904Z,10.33
2019-04-23T01:14:08.176Z,7.77
2019-04-23T01:16:38.120Z,8.47
2019-04-23T01:19:32.018Z,8.37
2019-04-23T01:21:34.934Z,11.73
2019-04-23T01:24:21.813Z,12.60
2019-04-23T01:27:49.976Z,36.13
2019-04-23T01:32:38.189Z,15.43
2019-04-23T01:35:15.159Z,14.03
2019-04-23T01:37:36.818Z,9.70
2019-04-23T01:40:14.994Z,9.60
2019-04-23T01:42:40.658Z,8.57
2019-04-23T01:45:13.612Z,9.23
2019-04-23T01:47:48.201Z,9.00
2019-04-23T01:50:14.024Z,8.30
2019-04-23T01:52:50.617Z,8.93
2019-04-23T01:55:15.474Z,10.47
2019-04-23T01:57:46.919Z,8.80
2019-04-23T02:00:16.103Z,9.90
2019-04-23T02:02:49.840Z,11.33
2019-04-23T02:10:20.542Z,9.57
2019-04-23T02:12:47.657Z,9.57
2019-04-23T02:15:18.571Z,9.30
2019-04-23T02:17:52.144Z,9.67
2019-04-23T02:20:21.882Z,8.73
2019-04-23T02:23:13.285Z,9.67
2019-04-23T02:25:44.073Z,9.73
2019-04-23T02:28:12.020Z,9.40
2019-04-23T02:33:34.481Z,9.13
2019-04-23T02:35:56.388Z,9.47
2019-04-23T02:38:31.241Z,9.17
2019-04-23T02:43:16.285Z,10.17
2019-04-23T02:46:02.294Z,10.63
2019-04-23T02:53:45.464Z,10.00
2019-04-23T02:58:54.864Z,9.40
2019-04-23T03:01:27.930Z,10.00
2019-04-23T03:04:00.896Z,10.10
2019-04-23T03:06:19.026Z,9.80
2019-04-23T03:11:28.149Z,10.83
2019-04-23T03:14:03.587Z,10.13
2019-04-23T03:16:40.165Z,10.07
2019-04-23T03:24:38.941Z,11.27
2019-04-23T03:27:10.364Z,10.97
2019-04-23T03:29:31.676Z,11.70
2019-04-23T03:39:46.017Z,11.07
2019-04-23T03:44:37.729Z,12.17
2019-04-23T03:47:04.281Z,11.30
2019-04-23T03:52:12.088Z,12.80
2019-04-23T03:54:42.268Z,13.03
2019-04-23T03:57:13.357Z,12.07
2019-04-23T03:59:46.782Z,11.20
2019-04-23T04:02:19.689Z,12.40
2019-04-23T04:04:36.940Z,12.73
2019-04-23T04:07:22.563Z,12.97
2019-04-23T04:12:12.367Z,11.63
2019-04-23T04:14:46.570Z,12.43
2019-04-23T04:17:17.917Z,13.20
2019-04-23T04:19:46.817Z,12.40
2019-04-23T04:24:39.518Z,21.10
2019-04-23T04:27:13.325Z,18.17
2019-04-23T04:32:03.671Z,15.50
2019-04-23T04:37:34.572Z,14.47
2019-04-23T04:39:57.148Z,12.70
2019-04-23T04:42:18.546Z,14.73
2019-04-23T04:44:47.366Z,16.60
2019-04-23T04:47:25.841Z,12.87
2019-04-23T04:52:34.632Z,13.37
2019-04-23T04:54:39.337Z,13.97
2019-04-23T04:57:30.224Z,13.77
2019-04-23T05:02:28.410Z,12.90
2019-04-23T05:04:55.835Z,13.77
2019-04-23T05:09:56.999Z,13.63
2019-04-23T05:12:23.650Z,13.70
2019-04-23T05:15:08.147Z,16.73
2019-04-23T05:18:03.250Z,15.63
2019-04-23T05:20:20.420Z,15.27
2019-04-23T05:22:59.448Z,14.77
2019-04-23T05:25:12.545Z,15.10
2019-04-23T05:27:55.257Z,14.90
2019-04-23T05:30:29.785Z,14.00
2019-04-23T05:32:50.402Z,14.30
2019-04-23T05:38:05.364Z,14.83
2019-04-23T05:40:32.219Z,14.97
2019-04-23T05:45:21.833Z,15.87
2019-04-23T05:50:27.142Z,14.20
2019-04-23T05:52:52.735Z,16.93
2019-04-23T05:55:20.141Z,14.80
2019-04-23T05:57:53.924Z,14.27
2019-04-23T06:00:26.213Z,19.40
2019-04-23T06:02:59.290Z,14.97
2019-04-23T06:05:29.004Z,14.00
2019-04-23T06:07:54.652Z,15.33
2019-04-23T06:10:30.619Z,15.07
2019-04-23T06:13:01.126Z,16.20
2019-04-23T06:15:31.652Z,16.03
2019-04-23T06:18:01.814Z,15.47
2019-04-23T06:20:35.210Z,17.20
2019-04-23T06:23:11.268Z,16.73
2019-04-23T06:28:08.127Z,15.40
2019-04-23T06:33:11.213Z,15.30
2019-04-23T06:35:37.679Z,18.13
2019-04-23T06:40:41.834Z,15.73
2019-04-23T06:43:22.964Z,14.90
2019-04-23T06:45:43.552Z,15.47
2019-04-23T06:48:21.808Z,15.70
2019-04-23T06:53:18.476Z,16.50
2019-04-23T06:58:25.953Z,15.87
2019-04-23T07:00:58.707Z,15.20
2019-04-23T07:03:31.195Z,16.10
2019-04-23T07:09:02.945Z,15.73
2019-04-23T07:13:55.724Z,17.37
2019-04-23T07:18:43.504Z,14.27
2019-04-23T07:26:25.737Z,15.80
2019-04-23T07:28:49.950Z,15.70
2019-04-23T07:31:21.462Z,16.03
2019-04-23T07:33:54.718Z,15.90
2019-04-23T07:36:22.770Z,14.90
2019-04-23T07:41:51.121Z,14.17
2019-04-23T07:46:53.533Z,16.93
2019-04-23T07:49:20.814Z,14.20
2019-04-23T07:51:48.119Z,17.90
2019-04-23T07:56:54.896Z,14.77
2019-04-23T07:59:22.813Z,14.50
2019-04-23T08:01:51.177Z,19.37
2019-04-23T08:04:16.586Z,14.77
2019-04-23T08:06:49.131Z,14.43
2019-04-23T08:09:17.584Z,13.70
2019-04-23T08:11:54.065Z,15.17
2019-04-23T08:14:13.732Z,15.70
2019-04-23T08:16:42.385Z,17.43
2019-04-23T08:19:25.653Z,14.90
2019-04-23T08:21:58.168Z,14.40
2019-04-23T08:24:49.077Z,15.53
2019-04-23T08:27:24.971Z,16.07
2019-04-23T08:29:41.415Z,14.20
2019-04-23T08:32:13.861Z,14.93
2019-04-23T08:37:24.572Z,15.43
2019-04-23T08:39:43.455Z,20.40
2019-04-23T08:42:33.120Z,15.30
2019-04-23T08:45:20.285Z,15.03
2019-04-23T08:47:36.492Z,16.30
2019-04-23T08:50:09.673Z,16.17
2019-04-23T08:52:38.279Z,16.23
2019-04-23T08:55:08.385Z,23.13
2019-04-23T08:57:38.068Z,16.90
2019-04-23T09:00:07.815Z,17.00
2019-04-23T09:05:36.265Z,17.90
2019-04-23T09:07:52.213Z,18.50
2019-04-23T09:12:45.939Z,18.03
2019-04-23T09:15:18.309Z,18.07
2019-04-23T09:17:47.813Z,19.07
2019-04-23T09:22:46.553Z,22.17
2019-04-23T09:25:20.313Z,21.73
2019-04-23T09:27:45.338Z,17.97
2019-04-23T09:30:20.069Z,17.87
2019-04-23T09:32:47.267Z,18.37
2019-04-23T09:35:27.529Z,18.00
2019-04-23T09:38:11.611Z,23.60
2019-04-23T09:43:47.126Z,16.50
2019-04-23T09:46:31.265Z,19.43
2019-04-23T09:49:13.532Z,17.80
2019-04-23T09:51:29.891Z,18.37
2019-04-23T09:53:58.075Z,24.37
2019-04-23T09:56:32.659Z,25.00
2019-04-23T09:59:02.327Z,16.87
2019-04-23T10:03:50.550Z,17.30
2019-04-23T10:06:17.376Z,21.43
2019-04-23T10:08:47.516Z,16.20
2019-04-23T10:11:13.837Z,17.70
2019-04-23T10:13:45.074Z,17.93
2019-04-23T10:16:17.139Z,19.13
2019-04-23T10:18:46.816Z,20.83
2019-04-23T10:21:17.329Z,18.00
2019-04-23T10:23:47.481Z,17.63
2019-04-23T10:26:16.728Z,20.20
2019-04-23T10:28:49.852Z,18.60
2019-04-23T10:31:20.721Z,19.77
2019-04-23T10:33:50.388Z,18.33
2019-04-23T10:36:23.580Z,20.60
2019-04-23T10:38:59.751Z,23.53
2019-04-23T10:41:22.332Z,21.10
2019-04-23T10:43:54.949Z,21.37
2019-04-23T10:47:06.131Z,22.40
2019-04-23T10:54:41.929Z,23.80
2019-04-23T10:57:12.746Z,23.80
2019-04-23T11:04:54.269Z,26.50
2019-04-23T11:07:30.922Z,23.83
2019-04-23T11:12:37.534Z,27.50
2019-04-23T11:14:58.515Z,25.13
2019-04-23T11:17:36.405Z,25.03
2019-04-23T11:20:10.817Z,27.13
2019-04-23T11:25:00.106Z,29.10
2019-04-23T11:27:32.638Z,43.13
2019-04-23T11:30:00.224Z,27.37
2019-04-23T11:32:46.926Z,31.93
2019-04-23T11:37:45.689Z,30.33
2019-04-23T11:40:01.187Z,30.73
2019-04-23T11:42:38.023Z,27.47
2019-04-23T11:45:09.197Z,30.80
2019-04-23T11:48:07.561Z,29.97
2019-04-23T11:50:13.763Z,29.07
2019-04-23T11:52:44.264Z,31.47
2019-04-23T11:55:24.592Z,30.50
2019-04-23T11:57:41.146Z,29.57
2019-04-23T12:00:05.315Z,29.17
2019-04-23T12:02:50.710Z,29.67
2019-04-23T12:05:29.660Z,28.50
2019-04-23T12:08:00.518Z,28.20
2019-04-23T12:10:40.746Z,30.07
2019-04-23T12:13:03.191Z,27.07
2019-04-23T12:18:10.991Z,31.23
2019-04-23T12:20:35.816Z,27.00
2019-04-23T12:23:25.462Z,26.27
2019-04-23T12:25:45.771Z,25.07
2019-04-23T12:28:18.029Z,25.50
2019-04-23T12:30:45.133Z,32.20
2019-04-23T12:35:42.418Z,27.57
2019-04-23T12:40:45.782Z,26.50
2019-04-23T12:45:57.761Z,25.77
2019-04-23T12:48:35.020Z,25.83
2019-04-23T12:53:37.893Z,24.63
2019-04-23T12:55:54.476Z,23.83
2019-04-23T12:58:38.204Z,32.10
2019-04-23T13:05:50.512Z,27.33
2019-04-23T13:08:33.284Z,26.53
2019-04-23T13:11:13.773Z,28.47
2019-04-23T13:13:35.178Z,31.37
2019-04-23T13:16:03.561Z,30.90
2019-04-23T13:18:31.511Z,29.63
2019-04-23T13:20:53.953Z,31.17
2019-04-23T13:23:44.220Z,32.90
2019-04-23T13:25:58.706Z,32.63
2019-04-23T13:28:38.849Z,37.97
2019-04-23T13:36:19.123Z,35.23
2019-04-23T13:38:40.448Z,35.40
2019-04-23T13:41:17.383Z,34.40
2019-04-23T13:43:48.478Z,35.27
2019-04-23T13:46:13.284Z,34.40
2019-04-23T13:48:36.347Z,36.70
2019-04-23T13:56:40.754Z,35.47
2019-04-23T14:03:48.047Z,40.67
2019-04-23T14:06:24.469Z,39.67
2019-04-23T14:08:53.822Z,40.87
2019-04-23T14:11:24.799Z,40.17
2019-04-23T14:14:08.294Z,41.23
2019-04-23T14:16:28.612Z,41.07
2019-04-23T14:24:13.180Z,50.47
2019-04-23T14:26:34.213Z,44.83
2019-04-23T14:28:57.026Z,43.13
2019-04-23T14:31:23.475Z,45.40
2019-04-23T14:36:30.486Z,47.77
2019-04-23T14:39:06.220Z,46.00
2019-04-23T14:41:26.777Z,47.17
2019-04-23T14:46:45.537Z,49.73
2019-04-23T14:49:03.593Z,46.87
2019-04-23T14:51:56.230Z,46.90
2019-04-23T14:54:08.902Z,52.27
2019-04-23T14:56:49.107Z,59.90
2019-04-23T14:59:07.120Z,45.73
2019-04-23T15:01:42.515Z,42.80
2019-04-23T15:04:11.048Z,42.27
2019-04-23T15:06:54.827Z,42.07
2019-04-23T15:09:20.914Z,44.70
2019-04-23T15:14:19.371Z,41.17
2019-04-23T15:16:51.465Z,39.47
2019-04-23T15:19:31.165Z,35.50
2019-04-23T15:29:07.003Z,34.03
2019-04-23T15:31:55.533Z,31.37
2019-04-23T15:37:19.216Z,35.30
2019-04-23T15:44:16.791Z,31.63
2019-04-23T15:49:28.743Z,30.83
2019-04-23T15:51:59.829Z,30.50
2019-04-23T15:54:37.206Z,29.50
2019-04-23T16:01:42.510Z,29.30
2019-04-23T16:04:03.416Z,29.70
2019-04-23T16:06:36.798Z,26.07
2019-04-23T16:09:21.004Z,26.70
2019-04-23T16:12:23.248Z,32.57
2019-04-23T16:14:40.646Z,30.67
2019-04-23T16:17:10.211Z,30.43
2019-04-23T16:19:49.402Z,29.93
2019-04-23T16:24:39.713Z,26.77
2019-04-23T16:27:13.856Z,29.83
2019-04-23T16:29:55.063Z,29.40
2019-04-23T16:32:20.506Z,28.17
2019-04-23T16:34:44.952Z,26.33
2019-04-23T16:39:58.227Z,26.30
2019-04-23T16:42:23.620Z,41.73
2019-04-23T16:47:24.040Z,29.90
2019-04-23T16:52:26.479Z,24.20
2019-04-23T16:57:45.782Z,23.40
2019-04-23T17:00:15.538Z,22.73
2019-04-23T17:02:24.598Z,23.83
2019-04-23T17:05:02.731Z,22.40
2019-04-23T17:07:20.974Z,22.57
2019-04-23T17:12:19.946Z,23.23
2019-04-23T17:15:02.709Z,19.93
2019-04-23T17:17:25.326Z,22.90
2019-04-23T17:20:08.927Z,23.70
2019-04-23T17:22:31.414Z,22.20
2019-04-23T17:27:41.641Z,20.50
2019-04-23T17:30:04.772Z,19.33
2019-04-23T17:32:28.207Z,20.37
2019-04-23T17:35:17.828Z,19.97
2019-04-23T17:37:40.134Z,19.90
2019-04-23T17:40:24.526Z,17.47
2019-04-23T17:42:56.760Z,18.80
2019-04-23T17:45:35.820Z,19.53
2019-04-23T17:48:11.819Z,18.93
2019-04-23T17:50:52.931Z,19.57
2019-04-23T17:53:35.263Z,17.60
2019-04-23T17:56:02.445Z,16.90
2019-04-23T17:58:26.140Z,16.63
2019-04-23T18:03:23.723Z,19.03
2019-04-23T18:06:03.507Z,16.30
2019-04-23T18:08:29.137Z,16.20
2019-04-23T18:10:59.435Z,19.53
2019-04-23T18:13:29.870Z,15.80
2019-04-23T18:16:04.061Z,16.13
2019-04-23T18:18:31.014Z,15.77
2019-04-23T18:21:21.306Z,15.87
2019-04-23T18:24:02.719Z,16.93
2019-04-23T18:26:23.115Z,17.17
2019-04-23T18:28:56.647Z,15.57
2019-04-23T18:31:19.811Z,17.83
2019-04-23T18:34:25.295Z,17.20
2019-04-23T18:36:32.789Z,16.30
2019-04-23T18:39:06.242Z,17.93
2019-04-23T18:41:43.094Z,16.20
2019-04-23T18:44:15.515Z,16.63
2019-04-23T18:46:43.474Z,15.47
2019-04-23T18:49:10.910Z,15.93
2019-04-23T18:51:40.446Z,17.33
2019-04-23T18:54:05.431Z,16.30
2019-04-23T18:57:00.143Z,15.63
2019-04-23T18:59:21.592Z,16.60
2019-04-23T19:02:02.521Z,15.73
2019-04-23T19:05:03.460Z,15.57
2019-04-23T19:06:51.131Z,17.07
2019-04-23T19:10:17.151Z,17.10
2019-04-23T19:15:04.511Z,18.63
2019-04-23T19:17:48.523Z,17.70
2019-04-23T19:20:00.813Z,17.70
2019-04-23T19:25:01.958Z,18.10
2019-04-23T19:27:37.084Z,18.57
2019-04-23T19:30:26.371Z,17.60
2019-04-23T19:32:41.259Z,18.37
2019-04-23T19:34:58.971Z,17.80
2019-04-23T19:37:49.145Z,19.50
2019-04-23T19:40:07.197Z,17.80
2019-04-23T19:42:46.086Z,18.40
2019-04-23T19:45:08.161Z,21.00
2019-04-23T19:47:45.327Z,19.23
2019-04-23T19:50:17.948Z,19.67
2019-04-23T19:52:57.399Z,19.33
2019-04-23T19:55:11.943Z,19.67
2019-04-23T19:57:42.588Z,20.57
2019-04-23T20:00:28.839Z,17.40
2019-04-23T20:03:01.591Z,18.67
2019-04-23T20:05:15.599Z,18.40
2019-04-23T20:07:54.844Z,18.90
2019-04-23T20:10:03.569Z,20.93
2019-04-23T20:15:08.265Z,19.87
2019-04-23T20:17:43.263Z,20.40
2019-04-23T20:20:19.421Z,20.10
2019-04-23T20:22:52.256Z,20.87
2019-04-23T20:27:52.333Z,20.57
2019-04-23T20:38:33.377Z,21.60
2019-04-23T20:43:27.237Z,17.37
2019-04-23T20:46:10.736Z,19.50
2019-04-23T20:48:28.423Z,19.23
2019-04-23T20:50:51.489Z,17.80
2019-04-23T20:53:28.391Z,18.00
2019-04-23T20:56:05.504Z,19.80
2019-04-23T20:58:50.431Z,20.53
2019-04-23T21:06:10.101Z,18.87
2019-04-23T21:09:05.158Z,18.10
2019-04-23T21:11:05.107Z,19.33
2019-04-23T21:16:15.342Z,22.03
2019-04-23T21:18:44.816Z,18.13
2019-04-23T21:23:45.272Z,20.53
2019-04-23T21:26:01.851Z,21.27
2019-04-23T21:28:44.461Z,19.00
2019-04-23T21:31:16.433Z,19.50
2019-04-23T21:34:21.579Z,18.90
2019-04-23T21:36:40.123Z,20.07
2019-04-23T21:44:21.210Z,18.17
2019-04-23T21:46:54.172Z,18.67
2019-04-23T21:51:56.463Z,17.83
2019-04-23T21:54:13.240Z,17.00
2019-04-23T21:56:47.094Z,18.07
2019-04-23T21:59:11.943Z,18.37
2019-04-23T22:01:55.784Z,18.07
2019-04-23T22:04:35.696Z,19.13
2019-04-23T22:06:52.728Z,18.60
2019-04-23T22:09:26.986Z,17.43
2019-04-23T22:12:08.987Z,17.20
2019-04-23T22:14:27.013Z,18.93
2019-04-23T22:17:04.749Z,16.70
2019-04-23T22:24:27.535Z,28.47
2019-04-23T22:26:54.519Z,15.50
2019-04-23T22:29:33.077Z,16.43
2019-04-23T22:32:02.508Z,20.33
2019-04-23T22:34:42.684Z,26.87
2019-04-23T22:37:11.198Z,15.20
2019-04-23T22:39:40.371Z,24.13
2019-04-23T22:42:41.290Z,20.27
2019-04-23T22:44:56.114Z,18.10
2019-04-23T22:47:05.940Z,19.57
2019-04-23T22:52:16.499Z,18.00
2019-04-23T22:54:51.413Z,21.97
2019-04-23T22:57:09.110Z,25.73
2019-04-23T22:59:57.000Z,15.00
2019-04-23T23:02:45.966Z,16.10
2019-04-23T23:05:14.229Z,24.53
2019-04-23T23:07:51.148Z,21.83
2019-04-23T23:12:51.314Z,22.97
2019-04-23T23:17:51.073Z,20.30
2019-04-23T23:20:22.567Z,23.50
2019-04-23T23:22:58.451Z,15.37
2019-04-23T23:25:20.563Z,19.17
2019-04-23T23:27:50.111Z,19.47
2019-04-23T23:30:28.331Z,29.73
2019-04-23T23:32:52.194Z,22.10
2019-04-23T23:35:24.528Z,25.67
2019-04-23T23:37:41.821Z,23.60
2019-04-23T23:40:21.576Z,20.60
2019-04-23T23:42:58.020Z,19.50
2019-04-23T23:45:35.401Z,18.47
2019-04-23T23:47:53.968Z,22.53
2019-04-23T23:50:25.256Z,15.30
2019-04-23T23:52:53.613Z,23.67
2019-04-23T23:55:24.485Z,22.53
2019-04-23T23:57:50.288Z,33.20
